Data for 05/17/2008

Time Sea-Level Adjusted Pressure Absolute Pressure Temperature Relative Humidity Dew Point   
(mb) (inHg) (mb) (inHg) (C) (F) (%) (C) (F)
00:05 1026 30.3 855 25.25 12.4 54.4 50 2.3 36.1
00:10 1026 30.3 855 25.25 12.2 53.9 51 2.3 36.1
00:15 1026 30.3 855 25.25 12 53.6 51 2.2 36
00:20 1026 30.3 855 25.25 11.9 53.4 51 2.1 35.9
00:25 1026 30.3 855 25.25 11.8 53.3 51 2.1 35.8
00:30 1026 30.3 855 25.25 11.8 53.2 52 2.3 36.2
00:35 1026 30.3 855 25.25 11.7 53 51 2.1 35.7
00:40 1026 30.3 855 25.25 12 53.6 50 1.9 35.5
00:45 1026 30.3 855 25.25 12.2 54 50 2.2 35.9
00:50 1026 30.3 855 25.25 12.1 53.9 52 2.7 36.8
00:55 1026 30.3 855 25.25 12.1 53.7 53 2.8 37
01:00 1026 30.3 855 25.25 12.1 53.8 53 3 37.3
01:05 1026 30.3 855 25.25 11.7 53.1 56 3.4 38.1
01:10 1026 30.3 855 25.25 11.3 52.3 59 3.5 38.3
01:15 1026 30.3 855 25.25 11.2 52.1 58 3.4 38.1
01:20 1026 30.3 855 25.25 11.3 52.3 57 3.1 37.6
01:25 1026 30.3 855 25.25 11.5 52.7 56 2.9 37.3
01:30 1025 30.27 855 25.25 11.7 53 55 3 37.3
01:35 1025 30.27 855 25.25 11.4 52.5 56 3 37.4
01:40 1025 30.27 855 25.25 10.9 51.5 57 2.7 36.9
01:45 1025 30.27 855 25.25 10.8 51.4 57 2.7 36.8
01:50 1025 30.27 855 25.25 10.8 51.4 57 2.7 36.8
01:55 1026 30.3 855 25.25 10.7 51.3 57 2.6 36.7
02:00 1026 30.3 855 25.25 10.6 51.1 58 2.7 36.9
02:05 1026 30.3 855 25.25 10.5 50.8 59 2.9 37.3
02:10 1026 30.3 855 25.25 10.3 50.5 60 2.9 37.2
02:15 1026 30.3 855 25.25 10.3 50.5 59 2.7 36.8
02:20 1025 30.27 855 25.25 10.5 50.9 59 2.8 37.1
02:25 1025 30.27 855 25.25 10.4 50.8 60 3 37.4
02:30 1026 30.3 855 25.25 10.5 50.8 60 3.1 37.5
02:35 1026 30.3 855 25.25 10.5 50.9 59 2.8 37.1
02:40 1026 30.3 855 25.25 10.8 51.4 59 3.2 37.7
02:45 1026 30.3 855 25.25 10.4 50.8 60 3 37.5
02:50 1026 30.3 855 25.25 10.6 51 58 2.6 36.7
02:55 1026 30.3 855 25.25 10.7 51.2 58 2.9 37.2
03:00 1026 30.3 855 25.25 10.6 51.1 59 3.1 37.5
03:05 1026 30.3 855 25.25 10.5 50.9 58 2.7 36.9
03:10 1026 30.3 855 25.25 10.8 51.4 57 2.5 36.5
03:15 1026 30.3 855 25.25 10.7 51.2 57 2.6 36.7
03:20 1026 30.3 855 25.25 10.5 50.9 57 2.4 36.4
03:25 1026 30.3 855 25.25 10.5 50.9 57 2.4 36.2
03:30 1026 30.3 855 25.25 10.6 51.1 57 2.4 36.3
03:35 1026 30.3 855 25.25 10.6 51.1 56 2.4 36.2
03:40 1026 30.3 855 25.25 10.6 51 57 2.3 36.2
03:45 1026 30.3 855 25.25 10.5 50.9 57 2.4 36.3
03:50 1026 30.3 855 25.25 10.2 50.4 58 2.4 36.3
03:55 1026 30.3 855 25.25 10 49.9 59 2.4 36.3
04:00 1026 30.3 855 25.25 9.7 49.5 60 2.4 36.4
04:05 1026 30.3 855 25.25 9.7 49.5 60 2.3 36.2
04:10 1026 30.3 855 25.25 9.9 49.8 60 2.5 36.5
04:15 1026 30.3 855 25.25 9.9 49.7 60 2.5 36.5
04:20 1026 30.3 855 25.25 9.9 49.8 60 2.6 36.8
04:25 1026 30.3 855 25.25 9.8 49.7 60 2.4 36.3
04:30 1026 30.3 855 25.25 9.9 49.9 59 2.3 36.1
04:35 1026 30.3 855 25.25 10.1 50.2 57 2 35.7
04:40 1026 30.3 855 25.25 10.3 50.6 56 2 35.7
04:45 1026 30.3 855 25.25 10.4 50.7 56 2 35.5
04:50 1026 30.3 855 25.25 10.4 50.7 57 2.3 36.2
04:55 1026 30.3 855 25.25 10.2 50.4 58 2.5 36.4
05:00 1026 30.3 855 25.25 9.9 49.7 60 2.6 36.7
05:05 1026 30.3 855 25.25 9.6 49.2 62 2.6 36.7
05:10 1026 30.3 855 25.25 9.5 49.1 61 2.4 36.3
05:15 1026 30.3 855 25.25 10 50 58 2.1 35.7
05:20 1026 30.3 855 25.25 10.5 50.9 56 2.1 35.8
05:25 1026 30.3 855 25.25 10.2 50.4 58 2.3 36.2
05:30 1026 30.3 855 25.25 9.6 49.2 60 2.2 36
05:35 1026 30.3 855 25.25 9.1 48.4 62 2.3 36.1
05:40 1026 30.3 855 25.25 9.3 48.7 60 1.9 35.5
05:45 1026 30.3 855 25.25 9.8 49.7 59 2.4 36.2
05:50 1026 30.3 855 25.25 9.6 49.2 60 2.3 36.1
05:55 1026 30.3 855 25.25 9.7 49.4 58 1.8 35.3
06:00 1026 30.3 855 25.25 9.9 49.8 56 1.6 34.9
06:05 1026 30.3 855 25.25 10.2 50.4 55 1.6 35
06:10 1026 30.3 855 25.25 9.8 49.7 57 1.7 35
06:15 1026 30.3 856 25.28 9.5 49 57 1.5 34.7
06:20 1026 30.3 856 25.28 9.4 49 58 1.5 34.7
06:25 1026 30.3 856 25.28 9.4 48.9 58 1.5 34.7
06:30 1027 30.33 856 25.28 9.4 48.9 57 1.4 34.5
06:35 1027 30.33 856 25.28 9.6 49.2 58 1.7 35.1
06:40 1027 30.33 856 25.28 9.7 49.4 58 1.9 35.3
06:45 1027 30.33 856 25.28 9.5 49.2 59 2 35.6
06:50 1027 30.33 856 25.28 9.3 48.8 60 2.1 35.7
06:55 1027 30.33 856 25.28 9.2 48.6 61 2.1 35.9
07:00 1027 30.33 856 25.28 9.3 48.7 61 2.3 36.1
07:05 1027 30.33 856 25.28 9.6 49.3 60 2.3 36.2
07:10 1027 30.33 856 25.28 9.9 49.9 60 2.5 36.5
07:15 1027 30.33 856 25.28 10.3 50.5 58 2.5 36.5
07:20 1026 30.3 856 25.28 10.5 50.8 57 2.4 36.3
07:25 1027 30.33 856 25.28 10.8 51.5 56 2.4 36.4
07:30 1027 30.33 856 25.28 11.2 52.2 54 2.4 36.3
07:35 1027 30.33 856 25.28 11.6 53 54 2.7 36.8
07:40 1027 30.33 856 25.28 12.1 53.8 53 2.8 37
07:45 1027 30.33 856 25.28 12.4 54.4 51 2.6 36.7
07:50 1027 30.33 856 25.28 12.7 54.8 50 2.7 36.8
07:55 1027 30.33 856 25.28 13 55.3 50 2.9 37.3
08:00 1027 30.33 856 25.28 13 55.4 50 3 37.4
08:05 1027 30.33 856 25.28 13.4 56.2 50 3.3 37.9
08:10 1027 30.33 856 25.28 13.8 56.8 50 3.6 38.4
08:15 1027 30.33 856 25.28 14 57.2 50 3.7 38.7
08:20 1027 30.33 856 25.28 14.5 58 48 3.7 38.7
08:25 1027 30.33 856 25.28 15.1 59.3 45 3.5 38.3
08:30 1027 30.33 856 25.28 15.8 60.4 43 3.4 38.1
08:35 1027 30.33 856 25.28 16 60.8 42 3.2 37.7
08:40 1027 30.33 856 25.28 16.2 61.2 41 3 37.5
08:45 1027 30.33 856 25.28 17 62.6 39 3.1 37.6
08:50 1027 30.33 856 25.28 17.5 63.5 35 1.9 35.4
08:55 1027 30.33 856 25.28 17.3 63.1 35 1.6 34.9
09:00 1027 30.33 856 25.28 16.8 62.3 35 1.4 34.5
09:05 1027 30.33 856 25.28 17.4 63.2 33 1.2 34.2
09:10 1027 30.33 856 25.28 17.8 64.1 32 1 33.8
09:15 1027 30.33 856 25.28 18.3 64.9 32 1.5 34.6
09:20 1027 30.33 856 25.28 18.2 64.7 33 1.9 35.4
09:25 1027 30.33 856 25.28 18.2 64.7 33 1.6 34.9
09:30 1027 30.33 856 25.28 18.2 64.8 33 1.8 35.2
09:35 1027 30.33 856 25.28 18.6 65.4 33 2.1 35.8
09:40 1027 30.33 856 25.28 18.6 65.4 32 1.8 35.2
09:45 1027 30.33 856 25.28 19.2 66.5 31 1.6 34.8
09:50 1027 30.33 856 25.28 19.1 66.3 31 1.8 35.2
09:55 1027 30.33 856 25.28 19.4 66.8 32 2.5 36.6
10:00 1027 30.33 856 25.28 19.6 67.2 31 2 35.6
10:05 1027 30.33 856 25.28 19.1 66.4 32 2 35.6
10:10 1026 30.3 856 25.28 19.6 67.2 30 1.5 34.8
10:15 1027 30.33 856 25.28 20.2 68.4 28 1.1 34.1
10:20 1026 30.3 856 25.28 20.2 68.3 29 1.5 34.8
10:25 1026 30.3 856 25.28 20.3 68.5 29 1.9 35.3
10:30 1027 30.33 856 25.28 20.4 68.8 29 2.2 35.9
10:35 1027 30.33 856 25.28 19.6 67.3 30 1.5 34.7
10:40 1027 30.33 856 25.28 19.5 67.1 30 1.7 35
10:45 1027 30.33 856 25.28 20.4 68.7 28 1.4 34.5
10:50 1026 30.3 856 25.28 21.1 70 26 1.2 34.1
10:55 1026 30.3 856 25.28 21 69.8 27 1.6 34.8
11:00 1026 30.3 856 25.28 21.3 70.3 27 1.6 34.9
11:05 1026 30.3 856 25.28 21.4 70.4 27 1.6 34.9
11:10 1026 30.3 856 25.28 21.7 71.1 26 1.6 34.9
11:15 1026 30.3 855 25.25 21.5 70.6 27 2.1 35.8
11:20 1026 30.3 855 25.25 21.4 70.5 26 1.4 34.4
11:25 1026 30.3 855 25.25 21.3 70.4 26 1.2 34.1
11:30 1026 30.3 855 25.25 21.4 70.5 28 2.1 35.8
11:35 1026 30.3 855 25.25 20.5 68.8 29 2 35.6
11:40 1026 30.3 855 25.25 20.9 69.7 26 1.1 34
11:45 1026 30.3 855 25.25 21.8 71.3 26 1.4 34.5
11:50 1026 30.3 855 25.25 22.2 71.9 26 2 35.5
11:55 1026 30.3 855 25.25 22.3 72.2 25 1.6 34.8
12:00 1026 30.3 855 25.25 22.2 71.9 25 1.5 34.7
12:05 1026 30.3 855 25.25 22 71.6 25 1.5 34.6
12:10 1026 30.3 855 25.25 22.7 72.8 24 1.4 34.5
12:15 1026 30.3 855 25.25 22.8 73.1 24 1.7 35.1
12:20 1026 30.3 855 25.25 22.9 73.2 24 1.6 34.9
12:25 1026 30.3 855 25.25 23.4 74.2 24 1.6 35
12:30 1026 30.3 855 25.25 23.3 74 24 1.7 35.1
12:35 1026 30.3 855 25.25 23.7 74.7 22 0.9 33.7
12:40 1026 30.3 855 25.25 24.2 75.5 22 1.3 34.4
12:45 1026 30.3 855 25.25 23.7 74.6 24 2.1 35.8
12:50 1026 30.3 855 25.25 23.5 74.3 22 1 33.9
12:55 1025 30.27 855 25.25 24 75.2 21 0.6 33.1
13:00 1025 30.27 855 25.25 23.4 74.2 20 -0.4 31.3
13:05 1025 30.27 855 25.25 23.6 74.5 18 -1.7 28.9
13:10 1025 30.27 855 25.25 24.6 76.2 20 0.6 33
13:15 1025 30.27 855 25.25 25 77.1 20 0.6 33
13:20 1025 30.27 854 25.22 24.7 76.5 20 0.7 33.3
13:25 1025 30.27 854 25.22 24.2 75.5 20 0.1 32.1
13:30 1025 30.27 854 25.22 24.4 75.9 19 -0.3 31.5
13:35 1025 30.27 854 25.22 24.9 76.9 17 -1.3 29.7
13:40 1025 30.27 854 25.22 25 77 16 -2.3 27.8
13:45 1025 30.27 854 25.22 24.8 76.7 18 -1.2 29.9
13:50 1025 30.27 854 25.22 25.3 77.6 17 -1.5 29.3
13:55 1025 30.27 854 25.22 23.2 73.8 20 -0.6 30.9
14:00 1025 30.27 854 25.22 23.4 74.2 19 -1.4 29.5
14:05 1025 30.27 854 25.22 24.3 75.8 17 -1.8 28.8
14:10 1025 30.27 854 25.22 24.2 75.6 18 -1.1 30.1
14:15 1025 30.27 854 25.22 25.2 77.3 16 -2.1 28.2
14:20 1025 30.27 854 25.22 24.7 76.4 17 -1.4 29.4
14:25 1025 30.27 854 25.22 23.9 75 16 -2.8 26.9
14:30 1025 30.27 854 25.22 25 77 16 -2.5 27.4
14:35 1025 30.27 854 25.22 25.4 77.6 18 -0.2 31.7
14:40 1025 30.27 854 25.22 25.5 77.9 17 -0.8 30.5
14:45 1025 30.27 854 25.22 26 78.8 15 -2.1 28.2
14:50 1024 30.24 854 25.22 25.3 77.5 16 -2 28.3
14:55 1024 30.24 854 25.22 25.1 77.2 18 -0.7 30.7
15:00 1024 30.24 854 25.22 25.5 77.8 17 -1 30.2
15:05 1024 30.24 854 25.22 25.7 78.2 16 -1.7 28.9
15:10 1024 30.24 853 25.19 26.3 79.3 16 -1.2 29.8
15:15 1024 30.24 853 25.19 26.2 79.2 16 -1.6 29.1
15:20 1024 30.24 853 25.19 26 78.9 15 -2 28.4
15:25 1024 30.24 853 25.19 25.5 77.9 15 -2.4 27.7
15:30 1024 30.24 853 25.19 25.4 77.7 16 -2 28.3
15:35 1024 30.24 853 25.19 26 78.8 16 -1.8 28.7
15:40 1024 30.24 853 25.19 26.6 79.9 16 -1 30.2
15:45 1024 30.24 853 25.19 26.7 80 16 -1.2 29.9
15:50 1024 30.24 853 25.19 26.9 80.4 15 -2 28.4
15:55 1024 30.24 853 25.19 27.1 80.8 15 -1.5 29.2
16:00 1024 30.24 853 25.19 27.4 81.4 14 -2.3 27.9
16:05 1024 30.24 853 25.19 27.2 81 14 -2.2 28.1
16:10 1024 30.24 853 25.19 26.7 80.1 14 -2.3 27.8
16:15 1024 30.24 853 25.19 26.7 80 14 -2.9 26.8
16:20 1023 30.21 853 25.19 26.6 79.9 14 -2.4 27.6
16:25 1023 30.21 853 25.19 25.6 78.1 15 -2.3 27.9
16:30 1023 30.21 853 25.19 25.8 78.4 15 -2.4 27.7
16:35 1023 30.21 852 25.16 26.7 80 15 -2.1 28.1
16:40 1023 30.21 852 25.16 26.9 80.3 15 -1.8 28.7
16:45 1023 30.21 852 25.16 26.6 79.9 14 -2.5 27.5
16:50 1023 30.21 852 25.16 26.4 79.5 15 -2.4 27.8
16:55 1023 30.21 852 25.16 26.7 80.1 15 -2.2 28.1
17:00 1023 30.21 852 25.16 27.1 80.8 14 -2.1 28.2
17:05 1023 30.21 852 25.16 26.9 80.5 14 -2.6 27.3
17:10 1023 30.21 852 25.16 26.3 79.4 15 -2.3 27.9
17:15 1023 30.21 852 25.16 26 78.9 15 -2.8 27
17:20 1023 30.21 852 25.16 26.7 80.1 14 -3.1 26.3
17:25 1023 30.21 852 25.16 27.1 80.7 14 -2.7 27.2
17:30 1023 30.21 852 25.16 26.9 80.4 14 -2.3 27.9
17:35 1022 30.18 852 25.16 26.9 80.5 14 -2.1 28.3
17:40 1022 30.18 852 25.16 27.2 80.9 14 -2.4 27.6
17:45 1022 30.18 851 25.13 26.4 79.5 14 -3.2 26.2
17:50 1022 30.18 851 25.13 26.5 79.7 14 -3 26.6
17:55 1022 30.18 851 25.13 26.8 80.2 13 -3.3 26.1
18:00 1022 30.18 851 25.13 26.7 80 14 -3 26.6
18:05 1022 30.18 851 25.13 27.4 81.2 13 -3.1 26.5
18:10 1022 30.18 851 25.13 27 80.5 13 -3 26.5
18:15 1022 30.18 851 25.13 27.2 81 14 -2.6 27.4
18:20 1022 30.18 851 25.13 26.8 80.2 15 -1.9 28.5
18:25 1022 30.18 851 25.13 26.4 79.5 13 -3.6 25.6
18:30 1022 30.18 851 25.13 26.1 79 14 -3.6 25.5
18:35 1022 30.18 851 25.13 26.5 79.8 13 -3.4 25.9
18:40 1022 30.18 851 25.13 26.5 79.8 14 -3 26.7
18:45 1021 30.15 851 25.13 26.2 79.1 14 -3 26.7
18:50 1021 30.15 851 25.13 25.9 78.7 15 -2.8 27
18:55 1021 30.15 851 25.13 25.6 78.1 15 -3 26.7
19:00 1021 30.15 851 25.13 25.5 77.8 15 -3 26.6
19:05 1021 30.15 850 25.1 25.4 77.8 15 -2.8 27
19:10 1021 30.15 850 25.1 25.4 77.6 17 -1 30.1
19:15 1021 30.15 850 25.1 25 77 18 -0.8 30.6
19:20 1021 30.15 850 25.1 24.9 76.9 15 -3.1 26.4
19:25 1021 30.15 850 25.1 24.9 76.8 15 -3.2 26.2
19:30 1021 30.15 850 25.1 25 76.9 17 -1.9 28.7
19:35 1021 30.15 850 25.1 25.1 77.2 16 -2.6 27.3
19:40 1021 30.15 850 25.1 25.1 77.2 17 -1.1 30
19:45 1021 30.15 850 25.1 25.2 77.4 16 -2.3 27.9
19:50 1021 30.15 850 25.1 25.3 77.5 19 0.1 32.1
19:55 1021 30.15 850 25.1 25.1 77.2 16 -2.4 27.8
20:00 1021 30.15 850 25.1 24.9 76.8 18 -0.4 31.2
20:05 1021 30.15 850 25.1 24.6 76.3 23 2.3 36.2
20:10 1021 30.15 850 25.1 24.4 76 22 1.4 34.5
20:15 1021 30.15 850 25.1 24.1 75.5 25 3.3 38
20:20 1021 30.15 850 25.1 23.3 74 27 3.6 38.4
20:25 1021 30.15 850 25.1 22.7 72.9 28 3.3 38
20:30 1021 30.15 850 25.1 22.3 72.1 27 2.7 36.8
20:35 1021 30.15 850 25.1 21.9 71.3 27 2.3 36.2
20:40 1020 30.12 850 25.1 21.3 70.4 27 1.9 35.4
20:45 1020 30.12 850 25.1 20.7 69.3 30 2.6 36.7
20:50 1020 30.12 850 25.1 20.3 68.5 29 1.7 35.1
20:55 1020 30.12 850 25.1 20 67.9 30 2.1 35.9
21:00 1020 30.12 850 25.1 19.8 67.6 30 1.6 34.9
21:05 1020 30.12 850 25.1 19.5 67.2 28 0.8 33.5
21:10 1020 30.12 850 25.1 19.5 67.2 29 1.1 33.9
21:15 1020 30.12 850 25.1 19.2 66.5 30 1.1 34
21:20 1021 30.15 850 25.1 18.8 65.8 32 1.8 35.2
21:25 1021 30.15 850 25.1 18.3 65 34 2.5 36.4
21:30 1021 30.15 850 25.1 18 64.3 33 1.4 34.6
21:35 1021 30.15 850 25.1 17.9 64.1 33 1.3 34.4
21:40 1021 30.15 850 25.1 17.7 63.9 33 1.2 34.2
21:45 1021 30.15 850 25.1 17.5 63.5 33 1.1 34
21:50 1021 30.15 850 25.1 17.3 63.1 33 1 33.8
21:55 1021 30.15 850 25.1 17 62.7 33 0.7 33.2
22:00 1021 30.15 850 25.1 17 62.5 33 0.6 33.1
22:05 1021 30.15 850 25.1 16.9 62.4 33 0.5 32.8
22:10 1021 30.15 850 25.1 16.8 62.2 33 0.4 32.6
22:15 1021 30.15 850 25.1 16.5 61.8 34 0.6 33
22:20 1021 30.15 850 25.1 16.2 61.2 34 0.5 32.8
22:25 1021 30.15 850 25.1 16.1 61.1 33 -0.1 31.8
22:30 1021 30.15 850 25.1 16.2 61.2 33 -0.1 31.9
22:35 1021 30.15 850 25.1 16.3 61.3 33 -0 32
22:40 1021 30.15 850 25.1 16.2 61.1 32 -0.2 31.6
22:45 1021 30.15 850 25.1 16.2 61.2 33 0 32.1
22:50 1020 30.12 850 25.1 16.1 61 32 -0.3 31.5
22:55 1020 30.12 850 25.1 16.2 61.2 32 -0.3 31.5
23:00 1020 30.12 850 25.1 16.3 61.3 33 -0 32
23:05 1020 30.12 849 25.07 16.3 61.3 31 -0.7 30.8
23:10 1020 30.12 849 25.07 16.3 61.3 31 -0.6 31
23:15 1020 30.12 849 25.07 16.1 61 32 -0.6 30.8
23:20 1020 30.12 849 25.07 16.2 61.1 31 -0.8 30.5
23:25 1020 30.12 849 25.07 16.2 61.1 31 -0.8 30.5
23:30 1020 30.12 849 25.07 16.1 61 31 -0.9 30.3
23:35 1020 30.12 849 25.07 16.2 61.2 31 -1 30.3
23:40 1020 30.12 849 25.07 16.3 61.4 31 -0.9 30.4
23:45 1020 30.12 849 25.07 16.2 61.1 31 -0.8 30.6
23:50 1020 30.12 849 25.07 16 60.8 31 -1 30.2
23:55 1020 30.12 849 25.07 16 60.8 32 -0.6 30.9
24:00 1020 30.12 849 25.07 15.8 60.4 32 -1 30.3